Pagrindinis puslapis
METAR-TAF:

METAR-TAF

Oro uostai :

Vitebskas, Baltarusija

platuma: 55-10N, ilguma: 030-13E, Aukštis: 176 m

Dabartinis oras

Ataskaita buvo paskelbta 25 minutes, ne 05:00 UTC
Vėjas 10 kt iš Šiaurės Vakarų su gūsio iki 16 kt
Temperatūra 2°C
Drėgmė 75%
Slėgis 1014 hPa
Matomumas 10 km arba daugiau
nėra debesų žemiau 1500 m ir nėra kamuolinių lietaus debesų

METAR: UMII 100500Z 32005G08MPS CAVOK 02/M02 Q1014 NOSIG

Laikas: 08:25 (05:25 UTC)

Prognozė

Ataskaita buvo paskelbta 15 valandos ir 22 minutes, ne 14:03 UTC
Prognozė galioja nuo 09 metu 15 UTC su 09 metu 24 UTC
Vėjas 10 kt iš Vakarų/Pietvakarių su gūsio iki 19 kt
Matomumas 10 km arba daugiau
Su prošvaistėmis ne aukštis 1500 ft
Laikinai
nuo 09 metu 15 UTC su 09 metu 24 UTC
Vėjas 27 kt nuo kintamojo kryptimis
Matomumas: 2000 m
Su prošvaistėmis ne aukštis 500 ft
Su prošvaistėmis ne aukštis 1200 ft, Liūtiniai kamuoliniai debesys.
lietus

TAF: UMII 091403Z 0915/0924 25005G10MPS 9999 BKN015 TEMPO 0915/0924 VRB14MPS 2000 SHRA BKN005 BKN012CB

Orai ataskaitas ir orų prognozės (METAR, TAF).

turimą stotys yra geltonos ir raudonos taškus žemėlapyje.

Perkelti pele per norėdami pamatyti stoties vardą.

Tada spustelėkite, norėdami matyti oro stebėjimo ir prognozės.

Norėdami pakeisti žemėlapį: spustelėkite ant žalios mygtukų su juodo kryžiaus žemyn,; žalią mygtuką su brūkšneliu, jei norite nutolinti; arba žalių rodyklių gretimoms žemėlapius.


METAR-TAF: